Lenox, Iowa
Current Conditions -  °F | °C
As of 8:55 AM on Saturday 22 Nov 2014 (Local Time) from KCSQ Reporting Station
Haze Haze  
Wind Chill: 34°   Ceiling: 400
Heat Index: 41°   Visibility: 3mi
Dew Point: 41°   Wind: 12mph
Humidity: 100%   Direction: 200°SSW
Pressure: 29.89"   Gusts: NA
Location:  40.88°N, 94.56°W
Report Text: KCSQ 221455Z AUTO 20010KT 3SM BR OVC004 05/05 A2989 RMK AO2
Loading
Personal Weather Stations






























Interactive Weather Map New forecast layout! Learn more

10-Day Weather Forecast

Advertisements
Track Severe Weather on mobile